sensor_id;sensor_type;location;lat;lon;timestamp;P1;durP1;ratioP1;P2;durP2;ratioP2
21780;SDS011;52576;53.614;9.894;2023-03-01T00:00:26;35.55;;;19.88;;
21780;SDS011;52576;53.614;9.894;2023-03-01T00:02:29;35.65;;;19.13;;
21780;SDS011;52576;53.614;9.894;2023-03-01T00:04:33;33.42;;;18.95;;
21780;SDS011;52576;53.614;9.894;2023-03-01T00:06:38;33.15;;;18.27;;
21780;SDS011;52576;53.614;9.894;2023-03-01T00:08:42;34.58;;;17.20;;
21780;SDS011;52576;53.614;9.894;2023-03-01T00:10:45;33.47;;;17.77;;
21780;SDS011;52576;53.614;9.894;2023-03-01T00:12:49;32.17;;;17.30;;
21780;SDS011;52576;53.614;9.894;2023-03-01T00:14:52;33.10;;;17.95;;
21780;SDS011;52576;53.614;9.894;2023-03-01T00:16:56;32.97;;;17.77;;
21780;SDS011;52576;53.614;9.894;2023-03-01T00:19:00;31.35;;;17.63;;
21780;SDS011;52576;53.614;9.894;2023-03-01T00:21:03;30.38;;;16.40;;
21780;SDS011;52576;53.614;9.894;2023-03-01T00:23:08;28.30;;;14.75;;
21780;SDS011;52576;53.614;9.894;2023-03-01T00:25:13;28.23;;;14.75;;
21780;SDS011;52576;53.614;9.894;2023-03-01T00:27:16;28.15;;;15.70;;
21780;SDS011;52576;53.614;9.894;2023-03-01T00:29:20;28.90;;;15.05;;
21780;SDS011;52576;53.614;9.894;2023-03-01T00:31:24;28.85;;;15.88;;
21780;SDS011;52576;53.614;9.894;2023-03-01T00:33:29;29.35;;;15.25;;
21780;SDS011;52576;53.614;9.894;2023-03-01T00:35:32;29.05;;;15.35;;
21780;SDS011;52576;53.614;9.894;2023-03-01T00:37:36;29.45;;;15.50;;
21780;SDS011;52576;53.614;9.894;2023-03-01T00:39:41;26.55;;;15.02;;
21780;SDS011;52576;53.614;9.894;2023-03-01T00:41:45;29.90;;;15.95;;
21780;SDS011;52576;53.614;9.894;2023-03-01T00:43:49;24.38;;;14.32;;
21780;SDS011;52576;53.614;9.894;2023-03-01T00:45:53;27.45;;;14.95;;
21780;SDS011;52576;53.614;9.894;2023-03-01T00:47:56;29.98;;;14.57;;
21780;SDS011;52576;53.614;9.894;2023-03-01T00:50:00;29.45;;;14.98;;
21780;SDS011;52576;53.614;9.894;2023-03-01T00:52:03;30.88;;;15.45;;
21780;SDS011;52576;53.614;9.894;2023-03-01T00:54:07;26.15;;;14.25;;
21780;SDS011;52576;53.614;9.894;2023-03-01T00:56:13;28.70;;;15.65;;
21780;SDS011;52576;53.614;9.894;2023-03-01T00:58:18;35.58;;;16.33;;
21780;SDS011;52576;53.614;9.894;2023-03-01T01:00:21;35.78;;;17.20;;
21780;SDS011;52576;53.614;9.894;2023-03-01T01:02:25;34.05;;;15.25;;
21780;SDS011;52576;53.614;9.894;2023-03-01T01:04:29;33.53;;;15.68;;
21780;SDS011;52576;53.614;9.894;2023-03-01T01:06:33;36.08;;;17.27;;
21780;SDS011;52576;53.614;9.894;2023-03-01T01:08:37;33.85;;;16.15;;
21780;SDS011;52576;53.614;9.894;2023-03-01T01:10:42;36.65;;;16.65;;
21780;SDS011;52576;53.614;9.894;2023-03-01T01:12:48;34.70;;;16.33;;
21780;SDS011;52576;53.614;9.894;2023-03-01T01:14:51;31.20;;;15.50;;
21780;SDS011;52576;53.614;9.894;2023-03-01T01:16:55;38.17;;;16.33;;
21780;SDS011;52576;53.614;9.894;2023-03-01T01:18:58;38.28;;;16.05;;
21780;SDS011;52576;53.614;9.894;2023-03-01T01:21:05;35.20;;;15.18;;
21780;SDS011;52576;53.614;9.894;2023-03-01T01:23:10;34.85;;;14.77;;
21780;SDS011;52576;53.614;9.894;2023-03-01T01:25:13;29.73;;;14.02;;
21780;SDS011;52576;53.614;9.894;2023-03-01T01:27:17;31.85;;;14.65;;
21780;SDS011;52576;53.614;9.894;2023-03-01T01:29:22;29.52;;;14.00;;
21780;SDS011;52576;53.614;9.894;2023-03-01T01:31:26;26.35;;;13.77;;
21780;SDS011;52576;53.614;9.894;2023-03-01T01:33:33;29.65;;;13.23;;
21780;SDS011;52576;53.614;9.894;2023-03-01T01:35:36;24.13;;;12.43;;
21780;SDS011;52576;53.614;9.894;2023-03-01T01:37:40;26.20;;;13.55;;
21780;SDS011;52576;53.614;9.894;2023-03-01T01:39:43;26.90;;;13.80;;
21780;SDS011;52576;53.614;9.894;2023-03-01T01:41:47;24.95;;;13.15;;
21780;SDS011;52576;53.614;9.894;2023-03-01T01:46:18;32.30;;;13.82;;
21780;SDS011;52576;53.614;9.894;2023-03-01T01:48:38;32.05;;;14.35;;
21780;SDS011;52576;53.614;9.894;2023-03-01T01:50:44;28.20;;;13.27;;
21780;SDS011;52576;53.614;9.894;2023-03-01T01:52:50;28.92;;;12.98;;
21780;SDS011;52576;53.614;9.894;2023-03-01T01:54:57;30.52;;;13.25;;
21780;SDS011;52576;53.614;9.894;2023-03-01T01:57:06;25.58;;;12.52;;
21780;SDS011;52576;53.614;9.894;2023-03-01T01:59:14;23.73;;;11.75;;
21780;SDS011;52576;53.614;9.894;2023-03-01T02:01:19;28.75;;;12.45;;
21780;SDS011;52576;53.614;9.894;2023-03-01T02:03:24;27.45;;;12.30;;
21780;SDS011;52576;53.614;9.894;2023-03-01T02:05:33;26.05;;;11.48;;
21780;SDS011;52576;53.614;9.894;2023-03-01T02:07:41;20.67;;;11.13;;
21780;SDS011;52576;53.614;9.894;2023-03-01T02:09:46;23.33;;;12.18;;
21780;SDS011;52576;53.614;9.894;2023-03-01T02:11:52;20.10;;;10.65;;
21780;SDS011;52576;53.614;9.894;2023-03-01T02:13:56;22.58;;;11.75;;
21780;SDS011;52576;53.614;9.894;2023-03-01T02:16:02;25.60;;;12.15;;
21780;SDS011;52576;53.614;9.894;2023-03-01T02:18:08;27.20;;;12.32;;
21780;SDS011;52576;53.614;9.894;2023-03-01T02:20:15;22.52;;;11.15;;
21780;SDS011;52576;53.614;9.894;2023-03-01T02:22:27;20.95;;;11.18;;
21780;SDS011;52576;53.614;9.894;2023-03-01T02:24:35;18.52;;;10.43;;
21780;SDS011;52576;53.614;9.894;2023-03-01T02:26:50;23.45;;;11.27;;
21780;SDS011;52576;53.614;9.894;2023-03-01T02:28:58;22.83;;;11.45;;
21780;SDS011;52576;53.614;9.894;2023-03-01T02:31:02;19.88;;;10.50;;
21780;SDS011;52576;53.614;9.894;2023-03-01T02:33:25;20.33;;;10.60;;
21780;SDS011;52576;53.614;9.894;2023-03-01T02:35:30;21.85;;;10.63;;
21780;SDS011;52576;53.614;9.894;2023-03-01T02:37:37;19.02;;;10.50;;
21780;SDS011;52576;53.614;9.894;2023-03-01T02:39:42;18.42;;;10.18;;
21780;SDS011;52576;53.614;9.894;2023-03-01T02:41:50;21.73;;;10.68;;
21780;SDS011;52576;53.614;9.894;2023-03-01T02:43:55;18.50;;;9.82;;
21780;SDS011;52576;53.614;9.894;2023-03-01T02:46:02;19.40;;;10.10;;
21780;SDS011;52576;53.614;9.894;2023-03-01T02:48:07;20.73;;;10.60;;
21780;SDS011;52576;53.614;9.894;2023-03-01T02:50:12;22.25;;;10.98;;
21780;SDS011;52576;53.614;9.894;2023-03-01T02:52:34;22.33;;;10.68;;
21780;SDS011;52576;53.614;9.894;2023-03-01T02:54:46;19.63;;;10.75;;
21780;SDS011;52576;53.614;9.894;2023-03-01T02:56:55;19.15;;;10.25;;
21780;SDS011;52576;53.614;9.894;2023-03-01T02:58:59;20.75;;;10.25;;
21780;SDS011;52576;53.614;9.894;2023-03-01T03:01:05;21.50;;;11.05;;
21780;SDS011;52576;53.614;9.894;2023-03-01T03:03:11;21.73;;;11.20;;
21780;SDS011;52576;53.614;9.894;2023-03-01T03:05:17;19.75;;;9.95;;
21780;SDS011;52576;53.614;9.894;2023-03-01T03:07:26;17.58;;;10.30;;
21780;SDS011;52576;53.614;9.894;2023-03-01T03:09:29;17.48;;;9.90;;
21780;SDS011;52576;53.614;9.894;2023-03-01T03:11:33;18.98;;;10.07;;
21780;SDS011;52576;53.614;9.894;2023-03-01T03:13:38;17.23;;;9.90;;
21780;SDS011;52576;53.614;9.894;2023-03-01T03:15:51;19.85;;;10.82;;
21780;SDS011;52576;53.614;9.894;2023-03-01T03:17:56;20.55;;;10.63;;
21780;SDS011;52576;53.614;9.894;2023-03-01T03:20:01;18.92;;;10.65;;
21780;SDS011;52576;53.614;9.894;2023-03-01T03:22:05;20.10;;;10.13;;
21780;SDS011;52576;53.614;9.894;2023-03-01T03:24:10;22.05;;;10.30;;
21780;SDS011;52576;53.614;9.894;2023-03-01T03:26:14;18.92;;;9.90;;
21780;SDS011;52576;53.614;9.894;2023-03-01T03:28:17;17.38;;;9.73;;
21780;SDS011;52576;53.614;9.894;2023-03-01T03:30:21;21.67;;;11.18;;
21780;SDS011;52576;53.614;9.894;2023-03-01T03:32:25;20.05;;;10.93;;
21780;SDS011;52576;53.614;9.894;2023-03-01T03:34:30;18.65;;;10.27;;
21780;SDS011;52576;53.614;9.894;2023-03-01T03:36:34;18.63;;;10.10;;
21780;SDS011;52576;53.614;9.894;2023-03-01T03:38:37;21.95;;;11.00;;
21780;SDS011;52576;53.614;9.894;2023-03-01T03:40:40;20.42;;;10.68;;
21780;SDS011;52576;53.614;9.894;2023-03-01T03:42:45;21.17;;;10.25;;
21780;SDS011;52576;53.614;9.894;2023-03-01T03:44:48;16.45;;;9.15;;
21780;SDS011;52576;53.614;9.894;2023-03-01T03:46:52;24.52;;;10.70;;
21780;SDS011;52576;53.614;9.894;2023-03-01T03:48:55;17.95;;;10.23;;
21780;SDS011;52576;53.614;9.894;2023-03-01T03:51:00;20.45;;;10.00;;
21780;SDS011;52576;53.614;9.894;2023-03-01T03:53:04;19.23;;;10.05;;
21780;SDS011;52576;53.614;9.894;2023-03-01T03:55:09;18.65;;;9.95;;
21780;SDS011;52576;53.614;9.894;2023-03-01T03:57:14;20.25;;;10.65;;
21780;SDS011;52576;53.614;9.894;2023-03-01T03:59:17;20.83;;;9.98;;
21780;SDS011;52576;53.614;9.894;2023-03-01T04:01:21;22.00;;;10.70;;
21780;SDS011;52576;53.614;9.894;2023-03-01T04:03:25;24.50;;;10.70;;
21780;SDS011;52576;53.614;9.894;2023-03-01T04:05:29;19.98;;;10.63;;
21780;SDS011;52576;53.614;9.894;2023-03-01T04:07:34;24.98;;;12.15;;
21780;SDS011;52576;53.614;9.894;2023-03-01T04:09:38;21.15;;;9.93;;
21780;SDS011;52576;53.614;9.894;2023-03-01T04:11:44;18.95;;;9.85;;
21780;SDS011;52576;53.614;9.894;2023-03-01T04:13:47;20.08;;;10.05;;
21780;SDS011;52576;53.614;9.894;2023-03-01T04:15:52;20.48;;;9.70;;
21780;SDS011;52576;53.614;9.894;2023-03-01T04:17:56;17.77;;;9.65;;
21780;SDS011;52576;53.614;9.894;2023-03-01T04:20:00;21.42;;;10.20;;
21780;SDS011;52576;53.614;9.894;2023-03-01T04:22:07;24.65;;;11.10;;
21780;SDS011;52576;53.614;9.894;2023-03-01T04:24:12;19.50;;;10.43;;
21780;SDS011;52576;53.614;9.894;2023-03-01T04:26:15;19.70;;;9.80;;
21780;SDS011;52576;53.614;9.894;2023-03-01T04:28:19;18.30;;;9.05;;
21780;SDS011;52576;53.614;9.894;2023-03-01T04:30:23;18.92;;;9.70;;
21780;SDS011;52576;53.614;9.894;2023-03-01T04:32:27;17.80;;;9.52;;
21780;SDS011;52576;53.614;9.894;2023-03-01T04:34:30;16.70;;;9.00;;
21780;SDS011;52576;53.614;9.894;2023-03-01T04:36:33;16.65;;;8.80;;
21780;SDS011;52576;53.614;9.894;2023-03-01T04:38:38;16.77;;;9.40;;
21780;SDS011;52576;53.614;9.894;2023-03-01T04:40:43;18.42;;;9.10;;
21780;SDS011;52576;53.614;9.894;2023-03-01T04:42:47;18.00;;;8.48;;
21780;SDS011;52576;53.614;9.894;2023-03-01T04:44:51;18.38;;;8.60;;
21780;SDS011;52576;53.614;9.894;2023-03-01T04:46:54;16.17;;;8.18;;
21780;SDS011;52576;53.614;9.894;2023-03-01T04:48:58;14.95;;;8.82;;
21780;SDS011;52576;53.614;9.894;2023-03-01T04:51:01;18.55;;;8.75;;
21780;SDS011;52576;53.614;9.894;2023-03-01T04:53:05;16.42;;;8.38;;
21780;SDS011;52576;53.614;9.894;2023-03-01T04:55:09;17.98;;;8.20;;
21780;SDS011;52576;53.614;9.894;2023-03-01T04:57:14;14.70;;;7.53;;
21780;SDS011;52576;53.614;9.894;2023-03-01T04:59:18;14.85;;;8.07;;
21780;SDS011;52576;53.614;9.894;2023-03-01T05:01:24;14.32;;;7.72;;
21780;SDS011;52576;53.614;9.894;2023-03-01T05:03:27;13.65;;;8.15;;
21780;SDS011;52576;53.614;9.894;2023-03-01T05:05:31;14.68;;;8.00;;
21780;SDS011;52576;53.614;9.894;2023-03-01T05:07:37;14.75;;;8.20;;
21780;SDS011;52576;53.614;9.894;2023-03-01T05:09:41;13.18;;;7.60;;
21780;SDS011;52576;53.614;9.894;2023-03-01T05:11:44;17.60;;;10.88;;
21780;SDS011;52576;53.614;9.894;2023-03-01T05:13:50;15.77;;;8.45;;
21780;SDS011;52576;53.614;9.894;2023-03-01T05:15:57;18.30;;;8.38;;
21780;SDS011;52576;53.614;9.894;2023-03-01T05:18:02;16.10;;;7.40;;
21780;SDS011;52576;53.614;9.894;2023-03-01T05:20:06;11.27;;;6.72;;
21780;SDS011;52576;53.614;9.894;2023-03-01T05:22:11;9.52;;;5.95;;
21780;SDS011;52576;53.614;9.894;2023-03-01T05:24:15;9.63;;;5.10;;
21780;SDS011;52576;53.614;9.894;2023-03-01T05:26:19;11.50;;;5.60;;
21780;SDS011;52576;53.614;9.894;2023-03-01T05:28:40;7.65;;;4.88;;
21780;SDS011;52576;53.614;9.894;2023-03-01T05:30:45;8.73;;;4.70;;
21780;SDS011;52576;53.614;9.894;2023-03-01T05:32:49;9.00;;;5.18;;
21780;SDS011;52576;53.614;9.894;2023-03-01T05:34:57;10.32;;;5.60;;
21780;SDS011;52576;53.614;9.894;2023-03-01T05:37:01;11.02;;;5.80;;
21780;SDS011;52576;53.614;9.894;2023-03-01T05:39:06;9.57;;;5.65;;
21780;SDS011;52576;53.614;9.894;2023-03-01T05:41:13;9.23;;;5.03;;
21780;SDS011;52576;53.614;9.894;2023-03-01T05:43:18;8.90;;;5.38;;
21780;SDS011;52576;53.614;9.894;2023-03-01T05:45:22;7.82;;;5.10;;
21780;SDS011;52576;53.614;9.894;2023-03-01T05:47:28;9.90;;;5.03;;
21780;SDS011;52576;53.614;9.894;2023-03-01T05:49:33;10.63;;;5.22;;
21780;SDS011;52576;53.614;9.894;2023-03-01T05:51:40;9.48;;;5.38;;
21780;SDS011;52576;53.614;9.894;2023-03-01T05:53:44;8.27;;;4.88;;
21780;SDS011;52576;53.614;9.894;2023-03-01T05:55:47;12.48;;;5.10;;
21780;SDS011;52576;53.614;9.894;2023-03-01T05:57:51;9.52;;;5.63;;
21780;SDS011;52576;53.614;9.894;2023-03-01T05:59:55;9.13;;;4.93;;
21780;SDS011;52576;53.614;9.894;2023-03-01T06:01:58;10.70;;;5.72;;
21780;SDS011;52576;53.614;9.894;2023-03-01T06:04:03;15.45;;;5.97;;
21780;SDS011;52576;53.614;9.894;2023-03-01T06:06:07;9.63;;;5.50;;
21780;SDS011;52576;53.614;9.894;2023-03-01T06:08:11;9.50;;;5.40;;
21780;SDS011;52576;53.614;9.894;2023-03-01T06:10:15;9.10;;;5.03;;
21780;SDS011;52576;53.614;9.894;2023-03-01T06:12:19;8.75;;;5.50;;
21780;SDS011;52576;53.614;9.894;2023-03-01T06:14:22;8.88;;;5.03;;
21780;SDS011;52576;53.614;9.894;2023-03-01T06:16:26;9.27;;;5.32;;
21780;SDS011;52576;53.614;9.894;2023-03-01T06:18:30;9.60;;;5.53;;
21780;SDS011;52576;53.614;9.894;2023-03-01T06:20:35;10.32;;;5.57;;
21780;SDS011;52576;53.614;9.894;2023-03-01T06:22:38;8.43;;;4.97;;
21780;SDS011;52576;53.614;9.894;2023-03-01T06:24:42;10.10;;;5.68;;
21780;SDS011;52576;53.614;9.894;2023-03-01T06:26:45;9.32;;;5.07;;
21780;SDS011;52576;53.614;9.894;2023-03-01T06:28:49;10.15;;;5.22;;
21780;SDS011;52576;53.614;9.894;2023-03-01T06:30:52;10.25;;;5.40;;
21780;SDS011;52576;53.614;9.894;2023-03-01T06:32:55;9.52;;;5.85;;
21780;SDS011;52576;53.614;9.894;2023-03-01T06:35:02;10.32;;;5.35;;
21780;SDS011;52576;53.614;9.894;2023-03-01T06:37:08;10.23;;;5.75;;
21780;SDS011;52576;53.614;9.894;2023-03-01T06:39:11;12.00;;;6.28;;
21780;SDS011;52576;53.614;9.894;2023-03-01T06:41:15;7.90;;;4.90;;
21780;SDS011;52576;53.614;9.894;2023-03-01T06:43:18;11.20;;;5.53;;
21780;SDS011;52576;53.614;9.894;2023-03-01T06:45:22;12.40;;;5.85;;
21780;SDS011;52576;53.614;9.894;2023-03-01T06:47:26;8.85;;;5.53;;
21780;SDS011;52576;53.614;9.894;2023-03-01T06:49:29;12.07;;;5.40;;
21780;SDS011;52576;53.614;9.894;2023-03-01T06:51:33;11.07;;;5.78;;
21780;SDS011;52576;53.614;9.894;2023-03-01T06:53:38;10.63;;;6.15;;
21780;SDS011;52576;53.614;9.894;2023-03-01T06:55:41;14.30;;;6.20;;
21780;SDS011;52576;53.614;9.894;2023-03-01T06:57:44;12.52;;;5.68;;
21780;SDS011;52576;53.614;9.894;2023-03-01T06:59:48;12.00;;;5.57;;
21780;SDS011;52576;53.614;9.894;2023-03-01T07:01:51;9.38;;;5.70;;
21780;SDS011;52576;53.614;9.894;2023-03-01T07:03:55;10.38;;;5.28;;
21780;SDS011;52576;53.614;9.894;2023-03-01T07:05:58;10.85;;;5.72;;
21780;SDS011;52576;53.614;9.894;2023-03-01T07:08:02;9.50;;;5.30;;
21780;SDS011;52576;53.614;9.894;2023-03-01T07:10:08;8.05;;;5.40;;
21780;SDS011;52576;53.614;9.894;2023-03-01T07:12:12;9.18;;;5.28;;
21780;SDS011;52576;53.614;9.894;2023-03-01T07:14:16;9.93;;;4.95;;
21780;SDS011;52576;53.614;9.894;2023-03-01T07:16:21;10.15;;;5.13;;
21780;SDS011;52576;53.614;9.894;2023-03-01T07:18:24;15.32;;;5.72;;
21780;SDS011;52576;53.614;9.894;2023-03-01T07:20:28;11.73;;;5.82;;
21780;SDS011;52576;53.614;9.894;2023-03-01T07:22:31;12.02;;;5.70;;
21780;SDS011;52576;53.614;9.894;2023-03-01T07:24:35;11.43;;;5.45;;
21780;SDS011;52576;53.614;9.894;2023-03-01T07:26:40;10.60;;;5.45;;
21780;SDS011;52576;53.614;9.894;2023-03-01T07:28:43;10.60;;;5.60;;
21780;SDS011;52576;53.614;9.894;2023-03-01T07:30:47;11.18;;;5.90;;
21780;SDS011;52576;53.614;9.894;2023-03-01T07:32:50;12.23;;;5.72;;
21780;SDS011;52576;53.614;9.894;2023-03-01T07:34:56;10.38;;;5.82;;
21780;SDS011;52576;53.614;9.894;2023-03-01T07:36:59;9.48;;;5.47;;
21780;SDS011;52576;53.614;9.894;2023-03-01T07:39:03;9.77;;;6.00;;
21780;SDS011;52576;53.614;9.894;2023-03-01T07:41:06;11.60;;;6.13;;
21780;SDS011;52576;53.614;9.894;2023-03-01T07:43:12;10.68;;;6.93;;
21780;SDS011;52576;53.614;9.894;2023-03-01T07:45:15;12.27;;;7.57;;
21780;SDS011;52576;53.614;9.894;2023-03-01T07:47:19;12.88;;;7.53;;
21780;SDS011;52576;53.614;9.894;2023-03-01T07:49:22;12.82;;;7.30;;
21780;SDS011;52576;53.614;9.894;2023-03-01T07:51:28;19.15;;;7.53;;
21780;SDS011;52576;53.614;9.894;2023-03-01T07:53:31;13.25;;;7.93;;
21780;SDS011;52576;53.614;9.894;2023-03-01T07:55:36;13.93;;;8.02;;
21780;SDS011;52576;53.614;9.894;2023-03-01T07:57:39;13.82;;;8.27;;
21780;SDS011;52576;53.614;9.894;2023-03-01T07:59:44;14.35;;;8.25;;
21780;SDS011;52576;53.614;9.894;2023-03-01T08:01:48;18.13;;;9.40;;
21780;SDS011;52576;53.614;9.894;2023-03-01T08:03:51;13.68;;;8.43;;
21780;SDS011;52576;53.614;9.894;2023-03-01T08:05:55;14.88;;;9.13;;
21780;SDS011;52576;53.614;9.894;2023-03-01T08:07:59;19.52;;;10.90;;
21780;SDS011;52576;53.614;9.894;2023-03-01T08:10:02;15.60;;;9.80;;
21780;SDS011;52576;53.614;9.894;2023-03-01T08:12:06;19.60;;;11.00;;
21780;SDS011;52576;53.614;9.894;2023-03-01T08:14:09;20.45;;;12.00;;
21780;SDS011;52576;53.614;9.894;2023-03-01T08:16:15;18.67;;;10.80;;
21780;SDS011;52576;53.614;9.894;2023-03-01T08:18:19;18.42;;;11.80;;
21780;SDS011;52576;53.614;9.894;2023-03-01T08:20:23;19.45;;;12.35;;
21780;SDS011;52576;53.614;9.894;2023-03-01T08:22:27;17.75;;;11.38;;
21780;SDS011;52576;53.614;9.894;2023-03-01T08:24:30;19.02;;;11.70;;
21780;SDS011;52576;53.614;9.894;2023-03-01T08:26:34;18.65;;;12.05;;
21780;SDS011;52576;53.614;9.894;2023-03-01T08:28:37;21.27;;;11.27;;
21780;SDS011;52576;53.614;9.894;2023-03-01T08:30:41;17.85;;;11.77;;
21780;SDS011;52576;53.614;9.894;2023-03-01T08:32:46;21.63;;;11.68;;
21780;SDS011;52576;53.614;9.894;2023-03-01T08:34:49;19.92;;;12.50;;
21780;SDS011;52576;53.614;9.894;2023-03-01T08:36:53;20.45;;;12.55;;
21780;SDS011;52576;53.614;9.894;2023-03-01T08:38:56;18.50;;;11.27;;
21780;SDS011;52576;53.614;9.894;2023-03-01T08:41:00;17.50;;;11.10;;
21780;SDS011;52576;53.614;9.894;2023-03-01T08:43:04;17.50;;;11.60;;
21780;SDS011;52576;53.614;9.894;2023-03-01T08:45:08;17.73;;;11.35;;
21780;SDS011;52576;53.614;9.894;2023-03-01T08:47:14;19.67;;;11.57;;
21780;SDS011;52576;53.614;9.894;2023-03-01T08:49:19;18.88;;;12.23;;
21780;SDS011;52576;53.614;9.894;2023-03-01T08:51:23;16.80;;;11.45;;
21780;SDS011;52576;53.614;9.894;2023-03-01T08:53:27;18.40;;;11.60;;
21780;SDS011;52576;53.614;9.894;2023-03-01T08:55:30;18.55;;;11.68;;
21780;SDS011;52576;53.614;9.894;2023-03-01T08:57:34;17.95;;;12.20;;
21780;SDS011;52576;53.614;9.894;2023-03-01T08:59:37;20.58;;;12.43;;
21780;SDS011;52576;53.614;9.894;2023-03-01T09:01:41;17.27;;;11.70;;
21780;SDS011;52576;53.614;9.894;2023-03-01T09:03:46;20.23;;;12.27;;
21780;SDS011;52576;53.614;9.894;2023-03-01T09:05:51;17.42;;;11.98;;
21780;SDS011;52576;53.614;9.894;2023-03-01T09:07:55;19.98;;;12.15;;
21780;SDS011;52576;53.614;9.894;2023-03-01T09:10:00;18.25;;;12.30;;
21780;SDS011;52576;53.614;9.894;2023-03-01T09:12:04;19.10;;;12.43;;
21780;SDS011;52576;53.614;9.894;2023-03-01T09:14:08;17.60;;;12.55;;
21780;SDS011;52576;53.614;9.894;2023-03-01T09:16:12;25.17;;;13.10;;
21780;SDS011;52576;53.614;9.894;2023-03-01T09:18:16;20.92;;;12.85;;
21780;SDS011;52576;53.614;9.894;2023-03-01T09:20:20;23.70;;;13.02;;
21780;SDS011;52576;53.614;9.894;2023-03-01T09:22:25;21.42;;;13.07;;
21780;SDS011;52576;53.614;9.894;2023-03-01T09:24:28;20.73;;;12.38;;
21780;SDS011;52576;53.614;9.894;2023-03-01T09:26:32;24.30;;;13.18;;
21780;SDS011;52576;53.614;9.894;2023-03-01T09:28:35;24.50;;;13.38;;
21780;SDS011;52576;53.614;9.894;2023-03-01T09:30:39;21.48;;;12.57;;
21780;SDS011;52576;53.614;9.894;2023-03-01T09:32:43;22.63;;;13.10;;
21780;SDS011;52576;53.614;9.894;2023-03-01T09:34:46;21.23;;;13.18;;
21780;SDS011;52576;53.614;9.894;2023-03-01T09:37:06;25.30;;;12.95;;
21780;SDS011;52576;53.614;9.894;2023-03-01T09:39:11;21.55;;;13.15;;
21780;SDS011;52576;53.614;9.894;2023-03-01T09:41:19;20.75;;;12.70;;
21780;SDS011;52576;53.614;9.894;2023-03-01T09:43:35;20.17;;;12.50;;
21780;SDS011;52576;53.614;9.894;2023-03-01T09:45:46;20.65;;;12.70;;
21780;SDS011;52576;53.614;9.894;2023-03-01T09:47:53;20.75;;;12.43;;
21780;SDS011;52576;53.614;9.894;2023-03-01T09:49:59;21.52;;;13.00;;
21780;SDS011;52576;53.614;9.894;2023-03-01T09:52:17;28.25;;;14.05;;
21780;SDS011;52576;53.614;9.894;2023-03-01T09:54:27;28.23;;;13.32;;
21780;SDS011;52576;53.614;9.894;2023-03-01T09:56:32;23.45;;;13.68;;
21780;SDS011;52576;53.614;9.894;2023-03-01T09:58:42;25.08;;;13.85;;
21780;SDS011;52576;53.614;9.894;2023-03-01T10:00:54;27.00;;;14.52;;
21780;SDS011;52576;53.614;9.894;2023-03-01T10:03:03;25.17;;;15.38;;
21780;SDS011;52576;53.614;9.894;2023-03-01T10:05:33;23.65;;;14.23;;
21780;SDS011;52576;53.614;9.894;2023-03-01T10:07:41;25.75;;;14.20;;
21780;SDS011;52576;53.614;9.894;2023-03-01T10:09:52;26.95;;;14.07;;
21780;SDS011;52576;53.614;9.894;2023-03-01T10:11:55;28.25;;;14.32;;
21780;SDS011;52576;53.614;9.894;2023-03-01T10:14:01;24.83;;;14.23;;
21780;SDS011;52576;53.614;9.894;2023-03-01T10:16:10;21.45;;;13.02;;
21780;SDS011;52576;53.614;9.894;2023-03-01T10:18:18;37.92;;;21.08;;
21780;SDS011;52576;53.614;9.894;2023-03-01T10:20:24;22.17;;;13.15;;
21780;SDS011;52576;53.614;9.894;2023-03-01T10:22:29;21.70;;;12.48;;
21780;SDS011;52576;53.614;9.894;2023-03-01T10:24:35;20.48;;;12.80;;
21780;SDS011;52576;53.614;9.894;2023-03-01T10:26:43;18.40;;;11.70;;
21780;SDS011;52576;53.614;9.894;2023-03-01T10:28:54;17.85;;;11.57;;
21780;SDS011;52576;53.614;9.894;2023-03-01T10:31:04;22.58;;;12.48;;
21780;SDS011;52576;53.614;9.894;2023-03-01T10:33:16;19.85;;;11.63;;
21780;SDS011;52576;53.614;9.894;2023-03-01T10:35:22;17.73;;;11.27;;
21780;SDS011;52576;53.614;9.894;2023-03-01T10:37:27;18.38;;;11.10;;
21780;SDS011;52576;53.614;9.894;2023-03-01T10:39:31;19.30;;;11.40;;
21780;SDS011;52576;53.614;9.894;2023-03-01T10:41:35;18.50;;;11.52;;
21780;SDS011;52576;53.614;9.894;2023-03-01T10:43:55;16.05;;;10.10;;
21780;SDS011;52576;53.614;9.894;2023-03-01T10:46:01;18.70;;;11.25;;
21780;SDS011;52576;53.614;9.894;2023-03-01T10:48:11;16.88;;;10.25;;
21780;SDS011;52576;53.614;9.894;2023-03-01T10:50:19;15.77;;;9.82;;
21780;SDS011;52576;53.614;9.894;2023-03-01T10:52:26;15.95;;;10.15;;
21780;SDS011;52576;53.614;9.894;2023-03-01T10:54:32;18.30;;;10.35;;
21780;SDS011;52576;53.614;9.894;2023-03-01T10:56:46;16.25;;;9.15;;
21780;SDS011;52576;53.614;9.894;2023-03-01T10:58:58;14.98;;;9.68;;
21780;SDS011;52576;53.614;9.894;2023-03-01T11:01:03;17.13;;;9.73;;
21780;SDS011;52576;53.614;9.894;2023-03-01T11:03:10;15.43;;;8.77;;
21780;SDS011;52576;53.614;9.894;2023-03-01T11:05:18;12.80;;;8.23;;
21780;SDS011;52576;53.614;9.894;2023-03-01T11:07:25;14.13;;;7.80;;
21780;SDS011;52576;53.614;9.894;2023-03-01T11:09:30;15.77;;;9.13;;
21780;SDS011;52576;53.614;9.894;2023-03-01T11:11:39;14.50;;;9.23;;
21780;SDS011;52576;53.614;9.894;2023-03-01T11:13:49;14.38;;;9.07;;
21780;SDS011;52576;53.614;9.894;2023-03-01T11:15:58;15.95;;;9.35;;
21780;SDS011;52576;53.614;9.894;2023-03-01T11:18:03;14.23;;;8.75;;
21780;SDS011;52576;53.614;9.894;2023-03-01T11:20:17;14.07;;;9.45;;
21780;SDS011;52576;53.614;9.894;2023-03-01T11:22:30;20.42;;;9.63;;
21780;SDS011;52576;53.614;9.894;2023-03-01T11:24:39;15.68;;;9.15;;
21780;SDS011;52576;53.614;9.894;2023-03-01T11:26:45;19.92;;;9.75;;
21780;SDS011;52576;53.614;9.894;2023-03-01T11:28:55;19.58;;;9.43;;
21780;SDS011;52576;53.614;9.894;2023-03-01T11:31:05;15.35;;;9.20;;
21780;SDS011;52576;53.614;9.894;2023-03-01T11:33:16;13.70;;;8.65;;
21780;SDS011;52576;53.614;9.894;2023-03-01T11:35:27;15.18;;;8.75;;
21780;SDS011;52576;53.614;9.894;2023-03-01T11:37:36;15.70;;;9.18;;
21780;SDS011;52576;53.614;9.894;2023-03-01T11:39:43;12.18;;;8.05;;
21780;SDS011;52576;53.614;9.894;2023-03-01T11:41:58;13.77;;;8.85;;
21780;SDS011;52576;53.614;9.894;2023-03-01T11:44:21;16.33;;;9.00;;
21780;SDS011;52576;53.614;9.894;2023-03-01T11:46:37;12.73;;;8.57;;
21780;SDS011;52576;53.614;9.894;2023-03-01T11:49:05;13.02;;;8.40;;
21780;SDS011;52576;53.614;9.894;2023-03-01T11:51:34;13.20;;;7.85;;
21780;SDS011;52576;53.614;9.894;2023-03-01T11:53:50;12.75;;;7.82;;
21780;SDS011;52576;53.614;9.894;2023-03-01T11:56:10;14.27;;;8.27;;
21780;SDS011;52576;53.614;9.894;2023-03-01T11:58:33;15.85;;;8.25;;
21780;SDS011;52576;53.614;9.894;2023-03-01T12:01:02;12.55;;;7.90;;
21780;SDS011;52576;53.614;9.894;2023-03-01T12:03:26;13.98;;;8.25;;
21780;SDS011;52576;53.614;9.894;2023-03-01T12:05:47;12.95;;;8.38;;
21780;SDS011;52576;53.614;9.894;2023-03-01T12:08:06;14.82;;;9.00;;
21780;SDS011;52576;53.614;9.894;2023-03-01T12:10:19;14.88;;;9.55;;
21780;SDS011;52576;53.614;9.894;2023-03-01T12:12:27;18.65;;;9.95;;
21780;SDS011;52576;53.614;9.894;2023-03-01T12:14:51;13.93;;;9.40;;
21780;SDS011;52576;53.614;9.894;2023-03-01T12:17:19;13.43;;;9.15;;
21780;SDS011;52576;53.614;9.894;2023-03-01T12:19:38;14.13;;;7.80;;
21780;SDS011;52576;53.614;9.894;2023-03-01T12:21:57;12.88;;;8.63;;
21780;SDS011;52576;53.614;9.894;2023-03-01T12:24:15;13.20;;;8.45;;
21780;SDS011;52576;53.614;9.894;2023-03-01T12:26:32;12.25;;;8.80;;